Time;durP1;ratioP1;P1;durP2;ratioP2;P2;SDS_P1;SDS_P2;PMS_P1;PMS_P2;Temp;Humidity;BMP_temperature;BMP_pressure;BME280_temperature;BME280_humidity;BME280_pressure;Samples;Min_cycle;Max_cycle;Signal;HPM_P1;HPM_P2
2022/09/01 00:00:08;;;;;;;;;;;;;;;;;;5074698;28;19916;-81
2022/09/01 00:02:54;;;;;;;;;;;;;;;;;;5080062;28;19923;-82
2022/09/01 00:05:41;;;;;;;;;;;;;;;;;;5087749;28;19908;-81
2022/09/01 00:08:27;;;;;;;;;;;;;;;;;;5080404;28;19912;-81
2022/09/01 00:11:14;;;;;;;;;;;;;;;;;;5085003;28;19920;-80
2022/09/01 00:14:00;;;;;;;;;;;;;;;;;;5081964;28;19927;-81
2022/09/01 00:16:47;;;;;;;;;;;;;;;;;;5093347;28;19920;-84
2022/09/01 00:19:34;;;;;;;;;;;;;;;;;;5094190;28;19927;-82
2022/09/01 00:22:21;;;;;;;;;;;;;;;;;;5087908;28;19912;-81
2022/09/01 00:25:07;;;;;;;;;;;;;;;;;;5087110;28;19919;-81
2022/09/01 00:27:58;;;;;;;;;;;;;;;;;;5079603;28;19912;-80
2022/09/01 00:30:44;;;;;;;;;;;;;;;;;;5087466;28;19923;-78
2022/09/01 00:33:31;;;;;;;;;;;;;;;;;;5094718;28;19989;-81
2022/09/01 00:36:17;;;;;;;;;;;;;;;;;;5093087;28;19908;-80
2022/09/01 00:39:04;;;;;;;;;;;;;;;;;;5087849;28;20343;-80
2022/09/01 00:41:50;;;;;;;;;;;;;;;;;;5092657;28;19918;-81
2022/09/01 00:44:37;;;;;;;;;;;;;;;;;;5092672;28;20275;-81
2022/09/01 00:47:23;;;;;;;;;;;;;;;;;;5090668;28;19942;-81
2022/09/01 00:50:10;;;;;;;;;;;;;;;;;;5094613;28;19911;-82
2022/09/01 00:52:56;;;;;;;;;;;;;;;;;;5085893;28;20296;-82
2022/09/01 00:55:43;;;;;;;;;;;;;;;;;;5090670;28;19922;-82
2022/09/01 00:58:29;;;;;;;;;;;;;;;;;;5090550;28;19919;-81
2022/09/01 01:01:16;;;;;;;;;;;;;;;;;;5090065;28;19916;-82
2022/09/01 01:04:03;;;;;;;;;;;;;;;;;;5094300;28;19918;-83
2022/09/01 01:06:57;;;;;;;;;;;;;;;;;;5088624;28;19916;-83
2022/09/01 01:09:43;;;;;;;;;;;;;;;;;;5092962;28;19935;-81
2022/09/01 01:12:32;;;;;;;;;;;;;;;;;;5088086;28;19916;-80
2022/09/01 01:15:18;;;;;;;;;;;;;;;;;;5093961;28;19928;-81
2022/09/01 01:18:05;;;;;;;;;;;;;;;;;;5070017;28;19966;-81
2022/09/01 01:23:56;;;;;;;;;;;;;;;;;;5088242;28;19931;-81
2022/09/01 01:26:43;;;;;;;;;;;;;;;;;;5091030;28;19916;-82
2022/09/01 01:29:30;;;;;;;;;;;;;;;;;;5089036;28;19912;-82
2022/09/01 01:32:17;;;;;;;;;;;;;;;;;;5084201;28;19916;-83
2022/09/01 01:35:04;;;;;;;;;;;;;;;;;;5087184;28;19916;-80
2022/09/01 01:37:51;;;;;;;;;;;;;;;;;;5088112;28;20039;-79
2022/09/01 01:40:37;;;;;;;;;;;;;;;;;;5084273;28;20266;-78
2022/09/01 01:43:25;;;;;;;;;;;;;;;;;;5091449;28;19927;-78
2022/09/01 01:46:13;;;;;;;;;;;;;;;;;;5095442;28;19915;-79
2022/09/01 01:49:01;;;;;;;;;;;;;;;;;;5088556;28;19949;-80
2022/09/01 01:51:47;;;;;;;;;;;;;;;;;;5088518;28;20281;-79
2022/09/01 01:54:34;;;;;;;;;;;;;;;;;;5084097;28;19935;-80
2022/09/01 01:57:20;;;;;;;;;;;;;;;;;;5085063;28;19912;-80
2022/09/01 02:00:08;;;;;;;;;;;;;;;;;;5088553;28;19912;-82
2022/09/01 02:02:54;;;;;;;;;;;;;;;;;;5087057;28;19912;-80
2022/09/01 02:05:41;;;;;;;;;;;;;;;;;;5100658;28;19927;-80
2022/09/01 02:08:27;;;;;;;;;;;;;;;;;;5081925;28;20322;-80
2022/09/01 02:11:16;;;;;;;;;;;;;;;;;;5089217;28;19919;-80
2022/09/01 02:14:02;;;;;;;;;;;;;;;;;;5091621;28;19953;-81
2022/09/01 02:16:49;;;;;;;;;;;;;;;;;;5090700;28;20368;-79
2022/09/01 02:19:39;;;;;;;;;;;;;;;;;;5089351;28;19912;-80
2022/09/01 02:22:25;;;;;;;;;;;;;;;;;;5087107;28;19935;-80
2022/09/01 02:25:15;;;;;;;;;;;;;;;;;;5094220;28;19913;-82
2022/09/01 02:28:03;;;;;;;;;;;;;;;;;;5078900;28;19913;-82
2022/09/01 02:30:50;;;;;;;;;;;;;;;;;;5087695;28;19924;-81
2022/09/01 02:33:37;;;;;;;;;;;;;;;;;;5092950;28;19924;-82
2022/09/01 02:36:24;;;;;;;;;;;;;;;;;;5085555;28;19923;-81
2022/09/01 02:39:10;;;;;;;;;;;;;;;;;;5090308;28;19912;-80
2022/09/01 02:41:57;;;;;;;;;;;;;;;;;;5086983;28;19939;-80
2022/09/01 02:44:43;;;;;;;;;;;;;;;;;;5088976;28;19923;-81
2022/09/01 02:47:30;;;;;;;;;;;;;;;;;;5092624;28;19912;-81
2022/09/01 02:50:17;;;;;;;;;;;;;;;;;;5095134;28;20263;-81
2022/09/01 02:53:08;;;;;;;;;;;;;;;;;;5087970;28;19924;-80
2022/09/01 02:55:57;;;;;;;;;;;;;;;;;;5084714;28;19942;-81
2022/09/01 02:58:47;;;;;;;;;;;;;;;;;;5085154;28;19945;-80
2022/09/01 03:01:33;;;;;;;;;;;;;;;;;;5087736;28;19912;-80
2022/09/01 03:04:21;;;;;;;;;;;;;;;;;;5085068;28;20382;-81
2022/09/01 03:07:07;;;;;;;;;;;;;;;;;;5102689;28;20253;-80
2022/09/01 03:09:54;;;;;;;;;;;;;;;;;;5094799;28;19939;-80
2022/09/01 03:12:40;;;;;;;;;;;;;;;;;;5088767;28;19919;-80
2022/09/01 03:15:27;;;;;;;;;;;;;;;;;;5092288;28;19927;-79
2022/09/01 03:18:13;;;;;;;;;;;;;;;;;;5088179;28;19912;-79
2022/09/01 03:21:01;;;;;;;;;;;;;;;;;;5073914;28;19909;-78
2022/09/01 03:23:47;;;;;;;;;;;;;;;;;;5084373;28;19918;-79
2022/09/01 03:26:35;;;;;;;;;;;;;;;;;;5089344;28;19927;-78
2022/09/01 03:29:21;;;;;;;;;;;;;;;;;;5083114;28;19913;-78
2022/09/01 03:32:08;;;;;;;;;;;;;;;;;;5092013;28;19917;-77
2022/09/01 03:34:55;;;;;;;;;;;;;;;;;;5085611;28;19924;-77
2022/09/01 03:37:43;;;;;;;;;;;;;;;;;;5084743;28;20368;-78
2022/09/01 03:40:31;;;;;;;;;;;;;;;;;;5093720;28;19916;-79
2022/09/01 03:43:18;;;;;;;;;;;;;;;;;;5091530;28;20635;-78
2022/09/01 03:46:05;;;;;;;;;;;;;;;;;;5083043;28;19918;-79
2022/09/01 03:48:51;;;;;;;;;;;;;;;;;;5089936;28;19916;-79
2022/09/01 03:51:38;;;;;;;;;;;;;;;;;;5090031;28;20501;-80
2022/09/01 03:54:29;;;;;;;;;;;;;;;;;;5100792;28;19982;-80
2022/09/01 03:57:15;;;;;;;;;;;;;;;;;;5090481;28;19930;-80
2022/09/01 04:00:01;;;;;;;;;;;;;;;;;;5093230;28;19908;-80
2022/09/01 04:02:49;;;;;;;;;;;;;;;;;;5091984;28;19918;-79
2022/09/01 04:05:36;;;;;;;;;;;;;;;;;;5079556;28;19931;-79
2022/09/01 04:08:29;;;;;;;;;;;;;;;;;;5083989;28;19908;-79
2022/09/01 04:11:17;;;;;;;;;;;;;;;;;;5088622;28;19943;-79
2022/09/01 04:14:03;;;;;;;;;;;;;;;;;;5087135;28;19920;-79
2022/09/01 04:19:55;;;;;;;;;;;;;;;;;;5090997;28;19955;-78
2022/09/01 04:22:42;;;;;;;;;;;;;;;;;;5075901;28;19942;-78
2022/09/01 04:25:28;;;;;;;;;;;;;;;;;;5090596;28;19912;-80
2022/09/01 04:28:21;;;;;;;;;;;;;;;;;;5091852;28;19913;-78
2022/09/01 04:31:08;;;;;;;;;;;;;;;;;;5084404;28;20402;-77
2022/09/01 04:33:54;;;;;;;;;;;;;;;;;;5089759;28;19920;-74
2022/09/01 04:36:42;;;;;;;;;;;;;;;;;;5094369;28;19919;-74
2022/09/01 04:39:28;;;;;;;;;;;;;;;;;;5089580;28;19920;-75
2022/09/01 04:42:17;;;;;;;;;;;;;;;;;;5091976;28;19916;-74
2022/09/01 04:45:05;;;;;;;;;;;;;;;;;;5086351;28;19916;-74
2022/09/01 04:47:51;;;;;;;;;;;;;;;;;;5086835;28;20422;-75
2022/09/01 04:50:38;;;;;;;;;;;;;;;;;;5090182;28;19923;-75
2022/09/01 04:53:25;;;;;;;;;;;;;;;;;;5089764;28;19924;-75
2022/09/01 04:56:11;;;;;;;;;;;;;;;;;;5101902;28;19908;-76
2022/09/01 04:58:58;;;;;;;;;;;;;;;;;;5121878;28;20503;-76
2022/09/01 05:01:45;;;;;;;;;;;;;;;;;;5085019;28;19939;-75
2022/09/01 05:04:32;;;;;;;;;;;;;;;;;;5104612;28;19908;-75
2022/09/01 05:07:20;;;;;;;;;;;;;;;;;;5100228;28;19914;-75
2022/09/01 05:10:06;;;;;;;;;;;;;;;;;;5103498;28;19912;-76
2022/09/01 05:12:53;;;;;;;;;;;;;;;;;;5089143;28;19927;-75
2022/09/01 05:15:45;;;;;;;;;;;;;;;;;;5088541;28;19943;-75
2022/09/01 05:18:32;;;;;;;;;;;;;;;;;;5088937;28;20368;-74
2022/09/01 05:21:21;;;;;;;;;;;;;;;;;;5089922;28;19908;-75
2022/09/01 05:24:09;;;;;;;;;;;;;;;;;;5086073;28;19915;-75
2022/09/01 05:26:56;;;;;;;;;;;;;;;;;;5087968;28;19919;-76
2022/09/01 05:29:44;;;;;;;;;;;;;;;;;;5089349;28;20320;-76
2022/09/01 05:32:32;;;;;;;;;;;;;;;;;;5088641;28;19908;-75
2022/09/01 05:35:19;;;;;;;;;;;;;;;;;;5091240;28;20002;-75
2022/09/01 05:38:11;;;;;;;;;;;;;;;;;;5086023;28;19920;-74
2022/09/01 05:41:00;;;;;;;;;;;;;;;;;;5089324;28;19918;-75
2022/09/01 05:43:48;;;;;;;;;;;;;;;;;;5089900;28;20291;-75
2022/09/01 05:46:35;;;;;;;;;;;;;;;;;;5088598;28;19925;-76
2022/09/01 05:49:23;;;;;;;;;;;;;;;;;;5094876;28;19912;-74
2022/09/01 05:52:09;;;;;;;;;;;;;;;;;;5093741;28;19912;-76
2022/09/01 05:54:58;;;;;;;;;;;;;;;;;;5092571;28;19924;-76
2022/09/01 05:57:46;;;;;;;;;;;;;;;;;;5099751;28;20015;-75
2022/09/01 06:00:37;;;;;;;;;;;;;;;;;;5098389;28;19908;-76
2022/09/01 06:03:25;;;;;;;;;;;;;;;;;;5093201;28;19912;-76
2022/09/01 06:06:12;;;;;;;;;;;;;;;;;;5091595;28;20331;-77
2022/09/01 06:08:58;;;;;;;;;;;;;;;;;;5083141;28;19911;-80
2022/09/01 06:11:45;;;;;;;;;;;;;;;;;;5099430;28;20334;-77
2022/09/01 06:14:32;;;;;;;;;;;;;;;;;;5110297;28;19919;-77
2022/09/01 06:17:20;;;;;;;;;;;;;;;;;;5092665;28;19920;-78
2022/09/01 06:20:09;;;;;;;;;;;;;;;;;;5096142;28;19943;-77
2022/09/01 06:22:55;;;;;;;;;;;;;;;;;;5091992;28;19918;-75
2022/09/01 06:25:45;;;;;;;;;;;;;;;;;;5096648;28;20393;-75
2022/09/01 06:28:32;;;;;;;;;;;;;;;;;;5096254;27;20663;-75
2022/09/01 06:31:22;;;;;;;;;;;;;;;;;;5082903;28;19918;-75
2022/09/01 06:34:09;;;;;;;;;;;;;;;;;;5085407;28;19917;-75
2022/09/01 06:36:55;;;;;;;;;;;;;;;;;;5085604;28;19916;-76
2022/09/01 06:39:42;;;;;;;;;;;;;;;;;;5088354;28;20001;-76
2022/09/01 06:42:33;;;;;;;;;;;;;;;;;;5087063;28;19916;-76
2022/09/01 06:45:20;;;;;;;;;;;;;;;;;;5098506;28;19919;-76
2022/09/01 06:48:06;;;;;;;;;;;;;;;;;;5072165;28;19975;-76
2022/09/01 06:50:53;;;;;;;;;;;;;;;;;;5086589;28;19912;-76
2022/09/01 06:53:40;;;;;;;;;;;;;;;;;;5084510;28;20555;-76
2022/09/01 06:56:28;;;;;;;;;;;;;;;;;;5088539;28;19919;-76
2022/09/01 06:59:15;;;;;;;;;;;;;;;;;;5080369;28;19916;-76
2022/09/01 07:02:02;;;;;;;;;;;;;;;;;;5092489;28;19914;-75
2022/09/01 07:04:48;;;;;;;;;;;;;;;;;;5079248;28;19923;-77
2022/09/01 07:07:36;;;;;;;;;;;;;;;;;;5085341;28;19912;-75
2022/09/01 07:10:22;;;;;;;;;;;;;;;;;;5087064;28;19908;-75
2022/09/01 07:13:09;;;;;;;;;;;;;;;;;;5088524;28;19912;-75
2022/09/01 07:15:57;;;;;;;;;;;;;;;;;;5086374;28;19938;-75
2022/09/01 07:18:44;;;;;;;;;;;;;;;;;;5071474;28;19926;-75
2022/09/01 07:21:33;;;;;;;;;;;;;;;;;;5086764;28;19919;-75
2022/09/01 07:24:20;;;;;;;;;;;;;;;;;;5085087;28;19998;-75
2022/09/01 07:27:08;;;;;;;;;;;;;;;;;;5085400;28;19934;-75
2022/09/01 07:29:55;;;;;;;;;;;;;;;;;;5073884;28;20137;-77
2022/09/01 07:32:43;;;;;;;;;;;;;;;;;;5098115;28;19908;-75
2022/09/01 07:35:35;;;;;;;;;;;;;;;;;;5088637;28;19927;-75
2022/09/01 07:38:22;;;;;;;;;;;;;;;;;;5081489;28;19923;-75
2022/09/01 07:41:11;;;;;;;;;;;;;;;;;;5084970;28;20540;-76
2022/09/01 07:43:59;;;;;;;;;;;;;;;;;;5087648;28;19932;-77
2022/09/01 07:46:50;;;;;;;;;;;;;;;;;;5082514;28;19917;-78
2022/09/01 07:49:37;;;;;;;;;;;;;;;;;;5080496;28;20224;-77
2022/09/01 07:52:24;;;;;;;;;;;;;;;;;;5085541;28;19919;-76
2022/09/01 07:55:11;;;;;;;;;;;;;;;;;;5092529;28;20544;-76
2022/09/01 07:57:58;;;;;;;;;;;;;;;;;;5084430;28;20430;-76
2022/09/01 08:00:48;;;;;;;;;;;;;;;;;;5089437;28;19919;-76
2022/09/01 08:03:35;;;;;;;;;;;;;;;;;;5089950;28;20399;-76
2022/09/01 08:06:23;;;;;;;;;;;;;;;;;;5085346;28;19916;-76
2022/09/01 08:09:10;;;;;;;;;;;;;;;;;;5081844;28;20628;-76
2022/09/01 08:11:56;;;;;;;;;;;;;;;;;;5088566;28;19924;-76
2022/09/01 08:14:43;;;;;;;;;;;;;;;;;;5089916;28;20366;-77
2022/09/01 08:17:29;;;;;;;;;;;;;;;;;;5067407;28;20309;-76
2022/09/01 08:20:16;;;;;;;;;;;;;;;;;;5071177;28;19913;-76
2022/09/01 08:23:02;;;;;;;;;;;;;;;;;;5061395;28;19908;-75
2022/09/01 08:25:48;;;;;;;;;;;;;;;;;;5069176;28;19919;-75
2022/09/01 08:28:35;;;;;;;;;;;;;;;;;;5061071;28;19909;-75
2022/09/01 08:31:21;;;;;;;;;;;;;;;;;;5053000;28;19909;-75
2022/09/01 08:34:08;;;;;;;;;;;;;;;;;;5061951;28;19951;-75
2022/09/01 08:36:55;;;;;;;;;;;;;;;;;;5067953;28;19915;-76
2022/09/01 08:39:41;;;;;;;;;;;;;;;;;;5054061;28;20270;-75
2022/09/01 08:42:28;;;;;;;;;;;;;;;;;;5066348;28;19916;-76
2022/09/01 08:45:14;;;;;;;;;;;;;;;;;;5063192;28;19913;-76
2022/09/01 08:48:01;;;;;;;;;;;;;;;;;;5056338;28;19913;-76
2022/09/01 08:50:47;;;;;;;;;;;;;;;;;;5057134;28;19912;-75
2022/09/01 08:53:34;;;;;;;;;;;;;;;;;;5057416;28;20288;-77
2022/09/01 08:56:20;;;;;;;;;;;;;;;;;;5068420;28;19909;-77
2022/09/01 08:59:08;;;;;;;;;;;;;;;;;;5069542;28;19935;-77
2022/09/01 09:01:55;;;;;;;;;;;;;;;;;;5071015;28;19912;-77
2022/09/01 09:04:46;;;;;;;;;;;;;;;;;;5070668;28;19915;-76
2022/09/01 09:07:32;;;;;;;;;;;;;;;;;;5066418;28;20361;-77
2022/09/01 09:10:19;;;;;;;;;;;;;;;;;;5064468;28;19916;-77
2022/09/01 09:13:05;;;;;;;;;;;;;;;;;;5068432;28;20355;-76
2022/09/01 09:15:52;;;;;;;;;;;;;;;;;;5074660;28;19927;-76
2022/09/01 09:18:38;;;;;;;;;;;;;;;;;;5089690;28;19926;-76
2022/09/01 09:21:25;;;;;;;;;;;;;;;;;;5088837;28;20313;-76
2022/09/01 09:24:11;;;;;;;;;;;;;;;;;;5089994;28;19908;-76
2022/09/01 09:26:58;;;;;;;;;;;;;;;;;;5089694;28;19918;-76
2022/09/01 09:29:44;;;;;;;;;;;;;;;;;;5096176;28;19918;-75
2022/09/01 09:32:31;;;;;;;;;;;;;;;;;;5089617;28;19927;-76
2022/09/01 09:35:17;;;;;;;;;;;;;;;;;;5086901;28;19939;-76
2022/09/01 09:38:04;;;;;;;;;;;;;;;;;;5096919;28;19919;-75
2022/09/01 09:40:51;;;;;;;;;;;;;;;;;;5077969;28;19916;-75
2022/09/01 09:43:39;;;;;;;;;;;;;;;;;;5088928;28;19912;-76
2022/09/01 09:46:26;;;;;;;;;;;;;;;;;;5097901;28;19923;-75
2022/09/01 09:49:12;;;;;;;;;;;;;;;;;;5080867;28;19916;-76
2022/09/01 09:51:59;;;;;;;;;;;;;;;;;;5087909;28;19909;-75
2022/09/01 09:54:45;;;;;;;;;;;;;;;;;;5092266;28;19926;-74
2022/09/01 09:57:32;;;;;;;;;;;;;;;;;;5065487;28;19932;-76
2022/09/01 10:00:18;;;;;;;;;;;;;;;;;;5088452;28;20021;-76
2022/09/01 10:03:06;;;;;;;;;;;;;;;;;;5089200;28;20379;-76
2022/09/01 10:05:53;;;;;;;;;;;;;;;;;;5084204;28;19914;-75
2022/09/01 10:08:43;;;;;;;;;;;;;;;;;;5083635;28;19919;-75
2022/09/01 10:11:30;;;;;;;;;;;;;;;;;;5086385;28;20287;-74
2022/09/01 10:14:16;;;;;;;;;;;;;;;;;;5095973;28;19930;-75
2022/09/01 10:17:03;;;;;;;;;;;;;;;;;;5095803;28;19919;-76
2022/09/01 10:19:49;;;;;;;;;;;;;;;;;;5096581;28;19923;-76
2022/09/01 10:22:36;;;;;;;;;;;;;;;;;;5089483;28;19919;-76
2022/09/01 10:25:22;;;;;;;;;;;;;;;;;;5089041;28;20296;-76
2022/09/01 10:28:09;;;;;;;;;;;;;;;;;;5083551;28;19926;-76
2022/09/01 10:30:57;;;;;;;;;;;;;;;;;;5093976;28;19916;-75
2022/09/01 10:33:44;;;;;;;;;;;;;;;;;;5087348;28;19924;-75
2022/09/01 10:36:30;;;;;;;;;;;;;;;;;;5079017;28;19934;-75
2022/09/01 10:39:17;;;;;;;;;;;;;;;;;;5063980;28;19923;-74
2022/09/01 10:42:07;;;;;;;;;;;;;;;;;;5083687;28;19923;-75
2022/09/01 10:44:53;;;;;;;;;;;;;;;;;;5092062;28;19912;-74
2022/09/01 10:47:40;;;;;;;;;;;;;;;;;;5088587;28;19915;-74
2022/09/01 10:50:26;;;;;;;;;;;;;;;;;;5105337;28;19915;-75
2022/09/01 10:53:13;;;;;;;;;;;;;;;;;;5084245;28;20288;-75
2022/09/01 10:55:59;;;;;;;;;;;;;;;;;;5089947;28;19923;-74
2022/09/01 10:58:45;;;;;;;;;;;;;;;;;;5074673;28;19915;-75
2022/09/01 11:01:32;;;;;;;;;;;;;;;;;;5086319;28;19912;-75
2022/09/01 11:04:18;;;;;;;;;;;;;;;;;;5092712;28;19919;-80
2022/09/01 11:07:05;;;;;;;;;;;;;;;;;;5087732;28;20388;-78
2022/09/01 11:09:52;;;;;;;;;;;;;;;;;;5082689;28;19920;-79
2022/09/01 11:12:38;;;;;;;;;;;;;;;;;;5088995;28;20415;-79
2022/09/01 11:15:25;;;;;;;;;;;;;;;;;;5099442;28;19997;-79
2022/09/01 11:18:11;;;;;;;;;;;;;;;;;;5083037;28;19938;-72
2022/09/01 11:20:58;;;;;;;;;;;;;;;;;;5081753;28;19923;-73
2022/09/01 11:23:45;;;;;;;;;;;;;;;;;;5089711;28;20328;-73
2022/09/01 11:26:32;;;;;;;;;;;;;;;;;;5070615;28;20296;-74
2022/09/01 11:29:18;;;;;;;;;;;;;;;;;;5086933;28;19908;-73
2022/09/01 11:32:05;;;;;;;;;;;;;;;;;;5088231;28;20380;-74
2022/09/01 11:34:51;;;;;;;;;;;;;;;;;;5098783;28;19916;-73
2022/09/01 11:37:38;;;;;;;;;;;;;;;;;;5087966;28;20279;-73
2022/09/01 11:40:24;;;;;;;;;;;;;;;;;;5072561;28;19912;-73
2022/09/01 11:43:11;;;;;;;;;;;;;;;;;;5073291;28;19915;-73
2022/09/01 11:45:57;;;;;;;;;;;;;;;;;;5086645;28;19919;-73
2022/09/01 11:48:43;;;;;;;;;;;;;;;;;;5080429;28;19923;-73
2022/09/01 11:51:30;;;;;;;;;;;;;;;;;;5086878;28;19909;-73
2022/09/01 11:54:16;;;;;;;;;;;;;;;;;;5086656;28;20285;-73
2022/09/01 11:57:03;;;;;;;;;;;;;;;;;;5088316;28;19922;-72
2022/09/01 11:59:49;;;;;;;;;;;;;;;;;;5083341;28;19916;-72
2022/09/01 12:02:36;;;;;;;;;;;;;;;;;;5085641;28;19909;-72
2022/09/01 12:05:23;;;;;;;;;;;;;;;;;;5084715;28;19912;-72
2022/09/01 12:08:12;;;;;;;;;;;;;;;;;;5095926;28;19915;-73
2022/09/01 12:10:59;;;;;;;;;;;;;;;;;;5096318;28;19923;-73
2022/09/01 12:13:47;;;;;;;;;;;;;;;;;;5087015;28;19912;-72
2022/09/01 12:16:35;;;;;;;;;;;;;;;;;;5078512;28;19924;-74
2022/09/01 12:19:22;;;;;;;;;;;;;;;;;;5085424;28;20406;-72
2022/09/01 12:22:08;;;;;;;;;;;;;;;;;;5089452;28;19912;-75
2022/09/01 12:24:55;;;;;;;;;;;;;;;;;;5085169;28;19920;-73
2022/09/01 12:27:42;;;;;;;;;;;;;;;;;;5089743;28;20387;-75
